Time;durP1;ratioP1;P1;durP2;ratioP2;P2;SDS_P1;SDS_P2;PMS_P1;PMS_P2;Temp;Humidity;BMP_temperature;BMP_pressure;BME280_temperature;BME280_humidity;BME280_pressure;Samples;Min_cycle;Max_cycle;Signal;HPM_P1;HPM_P2
2022/03/27 00:01:31;;;;;;;;;46.50;39.25;;;;;15.71;37.13;102216.25;5035225;28;45361;-71
2022/03/27 00:03:57;;;;;;;;;46.25;37.75;;;;;15.74;37.00;102232.47;5043848;28;45105;-72
2022/03/27 00:06:23;;;;;;;;;43.25;34.00;;;;;15.62;37.25;102223.19;5050721;28;44938;-71
2022/03/27 00:08:48;;;;;;;;;48.50;39.00;;;;;15.43;37.21;102193.88;5050209;28;45555;-71
2022/03/27 00:11:26;;;;;;;;;48.25;36.25;;;;;15.43;37.15;102197.47;5050214;28;45055;-71
2022/03/27 00:13:53;;;;;;;;;46.25;37.00;;;;;15.09;37.50;102139.00;5050494;28;45029;-70
2022/03/27 00:16:19;;;;;;;;;49.25;38.00;;;;;15.47;37.33;102214.63;5042036;28;45347;-71
2022/03/27 00:18:46;;;;;;;;;47.00;35.50;;;;;15.27;37.49;102179.94;5030392;28;45769;-71
2022/03/27 00:21:11;;;;;;;;;51.00;40.00;;;;;15.56;37.44;102228.38;5030382;28;45062;-72
2022/03/27 00:23:37;;;;;;;;;43.00;35.25;;;;;15.13;37.75;102156.16;5041912;28;45107;-72
2022/03/27 00:26:03;;;;;;;;;46.75;39.00;;;;;15.53;37.46;102233.69;5035689;28;45092;-71
2022/03/27 00:28:32;;;;;;;;;46.50;36.75;;;;;15.02;37.60;102142.38;5045289;28;45605;-70
2022/03/27 00:31:04;;;;;;;;;45.25;31.50;;;;;15.38;37.87;102222.47;5038663;28;45458;-71
2022/03/27 00:33:29;;;;;;;;;47.25;37.00;;;;;15.34;37.42;102217.81;5045095;28;44983;-71
2022/03/27 00:35:55;;;;;;;;;55.75;40.50;;;;;15.45;37.96;102224.47;5043995;28;45021;-72
2022/03/27 00:38:21;;;;;;;;;52.25;41.00;;;;;15.21;37.92;102195.00;5045412;28;45168;-70
2022/03/27 00:40:47;;;;;;;;;45.75;36.25;;;;;15.27;38.02;102204.16;5039878;28;45447;-71
2022/03/27 00:43:13;;;;;;;;;45.75;38.25;;;;;15.05;38.02;102161.31;5033215;28;45049;-70
2022/03/27 00:45:38;;;;;;;;;49.00;39.75;;;;;15.43;37.91;102232.50;5038662;28;45349;-71
2022/03/27 00:48:04;;;;;;;;;50.00;38.75;;;;;15.39;38.33;102229.66;5048894;28;48180;-71
2022/03/27 00:50:30;;;;;;;;;46.00;33.50;;;;;15.36;38.09;102232.25;5042784;28;45041;-72
2022/03/27 00:52:57;;;;;;;;;44.50;35.00;;;;;15.27;37.99;102214.03;5039305;28;45136;-72
2022/03/27 00:55:22;;;;;;;;;51.75;39.00;;;;;15.27;38.40;102220.31;5035229;28;44965;-72
2022/03/27 00:57:48;;;;;;;;;50.25;36.25;;;;;15.17;38.24;102203.84;5040975;28;45544;-72
2022/03/27 01:00:35;;;;;;;;;51.00;40.75;;;;;15.07;38.33;102189.19;5035037;28;45008;-71
2022/03/27 01:03:00;;;;;;;;;50.25;38.00;;;;;15.03;38.41;102182.81;5038888;28;45358;-72
2022/03/27 01:05:28;;;;;;;;;50.75;37.00;;;;;15.19;38.50;102207.50;5036533;28;45174;-72
2022/03/27 01:07:53;;;;;;;;;45.50;35.75;;;;;15.22;38.54;102215.69;5033378;28;45283;-72
2022/03/27 01:10:23;;;;;;;;;44.50;33.75;;;;;15.18;38.43;102213.75;5042511;28;44934;-71
2022/03/27 01:12:48;;;;;;;;;46.25;36.00;;;;;15.08;38.68;102208.09;5044127;28;45140;-72
2022/03/27 01:15:26;;;;;;;;;47.75;33.25;;;;;14.94;38.45;102182.50;5041947;28;45203;-72
2022/03/27 01:17:51;;;;;;;;;48.75;35.00;;;;;15.01;38.68;102191.69;5033947;28;45134;-72
2022/03/27 01:20:42;;;;;;;;;50.00;40.00;;;;;15.11;39.04;102202.81;5050203;28;45052;-71
2022/03/27 01:23:09;;;;;;;;;49.00;37.25;;;;;14.89;38.85;102162.63;5037686;28;44947;-70
2022/03/27 01:25:37;;;;;;;;;48.75;37.75;;;;;14.95;39.00;102183.41;5044328;28;45019;-72
2022/03/27 01:28:03;;;;;;;;;49.50;37.75;;;;;15.02;39.16;102205.19;5047770;28;45215;-72
2022/03/27 01:30:28;;;;;;;;;44.75;34.50;;;;;14.80;38.98;102165.94;5040680;28;45124;-71
2022/03/27 01:32:55;;;;;;;;;46.00;36.50;;;;;14.81;39.27;102172.22;5043182;28;45247;-71
2022/03/27 01:35:21;;;;;;;;;43.00;36.25;;;;;15.03;38.96;102206.09;5035751;28;45101;-72
2022/03/27 01:37:47;;;;;;;;;42.75;36.00;;;;;15.00;38.98;102197.97;5037869;28;45041;-71
2022/03/27 01:40:13;;;;;;;;;52.50;37.75;;;;;14.96;39.37;102196.03;5038690;28;44959;-71
2022/03/27 01:42:39;;;;;;;;;47.00;36.00;;;;;14.92;39.46;102195.00;5038221;28;44933;-71
2022/03/27 01:45:05;;;;;;;;;49.75;40.00;;;;;14.74;39.67;102160.34;5034159;28;45244;-70
2022/03/27 01:47:31;;;;;;;;;52.25;39.00;;;;;14.87;39.94;102173.34;5035416;28;45840;-71
2022/03/27 01:49:56;;;;;;;;;50.50;38.75;;;;;14.72;40.11;102151.34;5038523;28;45187;-71
2022/03/27 01:52:22;;;;;;;;;46.50;36.00;;;;;14.66;39.84;102148.44;5053312;28;45069;-70
2022/03/27 01:54:47;;;;;;;;;52.25;38.00;;;;;14.86;39.88;102179.56;5050455;28;45084;-70
2022/03/27 01:57:13;;;;;;;;;55.25;39.75;;;;;14.71;39.74;102154.88;5042741;28;45297;-72
2022/03/27 01:59:39;;;;;;;;;45.75;36.00;;;;;14.85;40.02;102176.81;5052176;28;45093;-71
2022/03/27 02:02:04;;;;;;;;;50.50;35.75;;;;;14.50;40.17;102118.34;5053168;28;45129;-70
2022/03/27 02:04:29;;;;;;;;;48.50;37.25;;;;;14.71;40.55;102162.94;5048194;28;45093;-71
2022/03/27 02:06:55;;;;;;;;;52.75;40.75;;;;;14.34;39.60;102094.50;5033023;28;45139;-71
2022/03/27 02:09:20;;;;;;;;;52.75;41.00;;;;;14.80;40.39;102171.31;5031945;28;45037;-70
2022/03/27 02:11:45;;;;;;;;;43.50;35.00;;;;;14.61;40.42;102136.63;5032805;28;45483;-71
2022/03/27 02:14:11;;;;;;;;;52.75;37.50;;;;;14.47;39.97;102129.00;5033180;28;45703;-70
2022/03/27 02:16:37;;;;;;;;;45.75;35.75;;;;;14.47;40.48;102117.31;5038304;28;45257;-72
2022/03/27 02:19:09;;;;;;;;;45.25;36.00;;;;;14.64;40.25;102159.16;5032867;28;45137;-71
2022/03/27 02:21:35;;;;;;;;;45.00;34.00;;;;;14.68;40.67;102178.97;5044912;28;44945;-70
2022/03/27 02:24:03;;;;;;;;;49.00;37.50;;;;;14.60;40.84;102154.56;5040618;28;45002;-71
2022/03/27 02:26:29;;;;;;;;;48.50;35.75;;;;;14.70;40.48;102175.50;5032410;28;45658;-71
2022/03/27 02:28:54;;;;;;;;;48.75;36.50;;;;;14.69;40.98;102168.28;5037255;28;45082;-71
2022/03/27 02:31:20;;;;;;;;;44.50;33.75;;;;;14.69;40.57;102173.66;5032595;28;45175;-71
2022/03/27 02:33:45;;;;;;;;;43.00;36.00;;;;;14.66;40.54;102172.66;5031589;28;45239;-70
2022/03/27 02:36:11;;;;;;;;;44.25;35.25;;;;;14.54;41.20;102160.59;5031845;28;45673;-71
2022/03/27 02:38:36;;;;;;;;;38.00;32.50;;;;;14.64;41.27;102169.00;5031103;28;45105;-71
2022/03/27 02:41:04;;;;;;;;;48.25;35.75;;;;;14.65;41.16;102182.50;5033695;28;45469;-70
2022/03/27 02:43:29;;;;;;;;;47.75;36.00;;;;;14.62;41.29;102181.47;5033453;28;45175;-71
2022/03/27 02:45:55;;;;;;;;;52.75;40.00;;;;;14.41;41.05;102144.91;5046922;28;45498;-70
2022/03/27 02:48:20;;;;;;;;;48.25;37.25;;;;;14.47;41.24;102166.63;5034578;28;45054;-71
2022/03/27 02:50:47;;;;;;;;;41.50;33.50;;;;;14.60;41.15;102183.19;5032685;28;45114;-72
2022/03/27 02:53:12;;;;;;;;;40.00;33.25;;;;;14.55;41.05;102183.00;5035680;28;45052;-71
2022/03/27 02:55:37;;;;;;;;;41.75;35.00;;;;;14.57;40.99;102184.91;5035741;28;45573;-72
2022/03/27 02:58:03;;;;;;;;;46.75;33.75;;;;;14.27;41.14;102140.84;5018378;28;45002;-70
2022/03/27 03:00:29;;;;;;;;;38.25;33.00;;;;;14.48;41.74;102186.38;5034235;28;45308;-71
2022/03/27 03:02:54;;;;;;;;;47.00;34.75;;;;;14.05;41.45;102106.97;5049799;28;44937;-71
2022/03/27 03:05:21;;;;;;;;;39.50;33.00;;;;;14.33;41.27;102157.19;5035541;28;45276;-71
2022/03/27 03:07:46;;;;;;;;;44.25;35.75;;;;;14.47;41.59;102176.47;5029964;28;45602;-71
2022/03/27 03:10:14;;;;;;;;;39.50;31.75;;;;;14.46;41.80;102177.34;5032766;28;45023;-70
2022/03/27 03:12:40;;;;;;;;;39.75;32.75;;;;;14.21;42.02;102132.59;5035576;28;45127;-71
2022/03/27 03:15:06;;;;;;;;;35.75;32.50;;;;;14.20;42.03;102150.47;5038160;28;45168;-71
2022/03/27 03:17:31;;;;;;;;;40.50;31.75;;;;;14.35;42.09;102177.91;5033662;28;44987;-71
2022/03/27 03:19:57;;;;;;;;;38.75;32.75;;;;;14.28;41.91;102167.78;5045908;28;45942;-70
2022/03/27 03:22:24;;;;;;;;;35.75;29.00;;;;;14.28;42.16;102177.63;5051561;28;45150;-72
2022/03/27 03:24:50;;;;;;;;;36.25;33.00;;;;;14.21;42.07;102171.13;5041303;28;46280;-71
2022/03/27 03:27:15;;;;;;;;;41.75;31.75;;;;;14.28;41.88;102189.28;5032048;28;45070;-71
2022/03/27 03:29:41;;;;;;;;;38.00;34.25;;;;;14.28;42.37;102186.59;5038048;28;45266;-71
2022/03/27 03:32:06;;;;;;;;;43.50;32.00;;;;;14.27;42.29;102189.22;5033424;28;45369;-70
2022/03/27 03:34:32;;;;;;;;;48.25;36.50;;;;;14.17;42.22;102170.13;5038662;28;45257;-71
2022/03/27 03:36:57;;;;;;;;;45.00;36.75;;;;;14.13;42.81;102191.47;5032366;28;45081;-70
2022/03/27 03:39:23;;;;;;;;;47.00;34.00;;;;;14.04;43.25;102185.75;5032182;28;45010;-71
2022/03/27 03:41:49;;;;;;;;;42.00;31.00;;;;;14.11;42.88;102182.44;5033723;28;45089;-70
2022/03/27 03:44:14;;;;;;;;;37.00;30.25;;;;;14.13;42.87;102181.59;5038259;28;45692;-70
2022/03/27 03:46:40;;;;;;;;;39.50;31.00;;;;;13.89;42.12;102151.19;5051666;28;45093;-71
2022/03/27 03:49:08;;;;;;;;;40.00;31.75;;;;;14.05;43.16;102193.88;5031425;28;45280;-71
2022/03/27 03:51:34;;;;;;;;;36.75;31.50;;;;;14.04;42.30;102189.38;5032049;28;44968;-70
2022/03/27 03:54:01;;;;;;;;;39.25;33.25;;;;;14.00;42.85;102182.03;5031090;28;46599;-70
2022/03/27 03:56:27;;;;;;;;;39.25;33.00;;;;;13.63;42.11;102118.97;5044587;28;45176;-70
2022/03/27 03:58:52;;;;;;;;;36.50;28.25;;;;;13.87;43.32;102172.63;5051305;28;45283;-71
2022/03/27 04:01:17;;;;;;;;;40.50;34.00;;;;;13.96;42.94;102182.81;5046662;28;45100;-71
2022/03/27 04:03:43;;;;;;;;;39.75;33.00;;;;;13.96;43.05;102189.09;5035405;28;45340;-70
2022/03/27 04:06:08;;;;;;;;;35.00;32.00;;;;;13.97;43.39;102196.31;5034583;28;45185;-71
2022/03/27 04:08:34;;;;;;;;;36.25;26.00;;;;;13.92;42.50;102181.75;5032084;28;44994;-69
2022/03/27 04:10:59;;;;;;;;;40.00;31.25;;;;;13.99;43.20;102186.50;5032426;28;45037;-70
2022/03/27 04:13:25;;;;;;;;;41.00;31.50;;;;;13.88;42.54;102163.72;5031878;28;45478;-71
2022/03/27 04:15:50;;;;;;;;;22.25;19.25;;;;;13.94;43.20;102174.69;5031926;28;45062;-70
2022/03/27 04:18:15;;;;;;;;;26.50;22.75;;;;;14.00;42.97;102184.72;5025894;28;45220;-72
2022/03/27 04:20:41;;;;;;;;;31.75;24.50;;;;;13.99;43.17;102183.81;5050163;28;45074;-71
2022/03/27 04:23:07;;;;;;;;;33.75;29.50;;;;;13.86;42.72;102161.81;5051309;28;46524;-71
2022/03/27 04:25:32;;;;;;;;;42.00;30.75;;;;;13.99;42.78;102190.94;5023758;28;45172;-71
2022/03/27 04:28:03;;;;;;;;;38.00;29.00;;;;;13.85;42.83;102168.06;5048109;28;45069;-70
2022/03/27 04:30:29;;;;;;;;;36.25;31.50;;;;;13.94;42.53;102185.44;5036479;28;45017;-70
2022/03/27 04:32:55;;;;;;;;;36.75;30.00;;;;;13.94;42.79;102190.81;5051443;28;45256;-71
2022/03/27 04:35:20;;;;;;;;;38.25;30.50;;;;;13.92;42.65;102184.44;5040153;28;45200;-71
2022/03/27 04:37:47;;;;;;;;;38.75;35.00;;;;;13.97;42.90;102199.00;5053517;28;44899;-71
2022/03/27 04:40:13;;;;;;;;;40.75;32.25;;;;;13.72;43.34;102174.78;5054576;28;44930;-70
2022/03/27 04:42:40;;;;;;;;;33.25;30.25;;;;;13.85;43.71;102203.91;5054433;28;45791;-70
2022/03/27 04:45:07;;;;;;;;;38.50;33.50;;;;;13.73;43.95;102190.94;5048384;28;45096;-70
2022/03/27 04:47:34;;;;;;;;;47.75;33.50;;;;;13.71;43.30;102200.72;5035167;28;45025;-71
2022/03/27 04:49:59;;;;;;;;;31.25;28.50;;;;;13.70;43.11;102197.97;5034844;28;45062;-72
2022/03/27 04:52:25;;;;;;;;;37.75;31.25;;;;;13.70;43.52;102212.31;5045901;28;46265;-70
2022/03/27 04:54:51;;;;;;;;;35.50;31.75;;;;;13.65;43.73;102208.56;5047394;28;45130;-71
2022/03/27 04:57:16;;;;;;;;;40.00;32.50;;;;;13.67;43.93;102206.81;5054587;28;45186;-71
2022/03/27 04:59:42;;;;;;;;;28.00;27.00;;;;;13.37;43.72;102161.88;5042969;28;44855;-71
2022/03/27 05:02:07;;;;;;;;;36.50;32.75;;;;;13.12;43.65;102109.00;5038461;28;45085;-71
2022/03/27 05:04:33;;;;;;;;;36.25;29.50;;;;;13.59;44.38;102211.00;5034422;28;44970;-70
2022/03/27 05:06:58;;;;;;;;;38.75;33.25;;;;;13.39;43.97;102194.13;5039557;28;45255;-71
2022/03/27 05:09:23;;;;;;;;;37.25;31.25;;;;;13.52;44.11;102204.47;5048450;28;44963;-70
2022/03/27 05:11:49;;;;;;;;;39.25;26.50;;;;;13.38;44.30;102185.19;5044369;28;45548;-70
2022/03/27 05:14:15;;;;;;;;;32.75;30.25;;;;;13.49;43.36;102207.06;5053354;28;44980;-71
2022/03/27 05:16:40;;;;;;;;;39.25;33.00;;;;;13.55;44.55;102217.13;5054107;28;45217;-70
2022/03/27 05:19:06;;;;;;;;;32.25;27.00;;;;;13.53;43.77;102216.13;5053611;28;45058;-71
2022/03/27 05:21:32;;;;;;;;;37.50;31.00;;;;;13.58;44.42;102223.53;5048054;28;45424;-70
2022/03/27 05:23:58;;;;;;;;;37.75;29.75;;;;;13.54;44.08;102224.25;5046987;28;45054;-71
2022/03/27 05:26:25;;;;;;;;;38.75;32.50;;;;;13.27;44.98;102189.19;5045205;28;45073;-70
2022/03/27 05:28:50;;;;;;;;;43.25;33.50;;;;;13.40;44.22;102209.41;5037449;28;45098;-71
2022/03/27 05:31:16;;;;;;;;;36.25;32.50;;;;;13.27;44.90;102206.19;5033934;28;45523;-71
2022/03/27 05:33:42;;;;;;;;;40.00;34.50;;;;;13.35;44.62;102222.66;5033782;28;45167;-71
2022/03/27 05:36:08;;;;;;;;;38.50;33.00;;;;;13.36;44.58;102227.13;5041693;28;45164;-70
2022/03/27 05:38:37;;;;;;;;;41.50;32.50;;;;;13.25;45.17;102207.00;5037157;28;45119;-71
2022/03/27 05:41:03;;;;;;;;;41.50;33.50;;;;;13.33;45.20;102224.38;5036946;28;45471;-70
2022/03/27 05:43:28;;;;;;;;;40.50;31.00;;;;;13.05;45.73;102179.38;5039074;28;45077;-70
2022/03/27 05:45:53;;;;;;;;;31.75;29.25;;;;;13.28;45.39;102226.81;5034012;28;45180;-70
2022/03/27 05:48:20;;;;;;;;;37.25;31.50;;;;;12.73;45.61;102139.69;5050550;28;44943;-70
2022/03/27 05:50:46;;;;;;;;;37.25;31.25;;;;;13.15;45.35;102223.59;5049594;28;45111;-71
2022/03/27 05:53:11;;;;;;;;;33.75;29.75;;;;;13.07;45.28;102197.38;5049807;28;45226;-70
2022/03/27 05:55:37;;;;;;;;;35.75;29.75;;;;;12.73;45.16;102128.97;5038136;28;44871;-71
2022/03/27 05:58:02;;;;;;;;;36.00;30.50;;;;;13.25;44.96;102228.47;5037363;28;45141;-70
2022/03/27 06:00:28;;;;;;;;;37.50;31.75;;;;;12.96;44.64;102179.94;5033454;28;45549;-71
2022/03/27 06:02:53;;;;;;;;;43.50;33.00;;;;;13.21;44.85;102227.41;5033925;28;45248;-70
2022/03/27 06:05:22;;;;;;;;;35.50;32.25;;;;;13.02;45.77;102223.09;5039611;28;44934;-70
2022/03/27 06:07:54;;;;;;;;;35.25;28.25;;;;;12.59;45.45;102148.97;5048618;28;45173;-70
2022/03/27 06:10:28;;;;;;;;;36.50;29.75;;;;;13.04;46.10;102237.50;5042248;28;45490;-69
2022/03/27 06:12:54;;;;;;;;;38.25;30.25;;;;;13.03;45.90;102235.69;5031790;28;45085;-71
2022/03/27 06:15:20;;;;;;;;;33.50;31.00;;;;;13.06;46.37;102242.91;5033645;28;45224;-71
2022/03/27 06:17:48;;;;;;;;;41.00;31.25;;;;;13.05;45.75;102249.13;5049406;28;44941;-69
2022/03/27 06:20:16;;;;;;;;;32.25;31.00;;;;;13.04;45.88;102250.00;5046232;28;45279;-72
2022/03/27 06:22:42;;;;;;;;;37.00;31.75;;;;;13.01;46.20;102248.09;5049212;28;45566;-71
2022/03/27 06:25:14;;;;;;;;;34.25;31.50;;;;;12.95;46.06;102229.09;5047283;28;45154;-70
2022/03/27 06:27:40;;;;;;;;;38.75;30.25;;;;;13.11;45.45;102240.44;5043248;28;44997;-70
2022/03/27 06:30:12;;;;;;;;;38.75;30.75;;;;;12.86;46.07;102218.88;5049698;28;45125;-70
2022/03/27 06:32:38;;;;;;;;;35.50;31.75;;;;;13.09;46.70;102249.31;5041958;28;45140;-71
2022/03/27 06:35:05;;;;;;;;;35.50;27.50;;;;;13.11;45.77;102248.47;5044997;28;45317;-70
2022/03/27 06:37:32;;;;;;;;;35.50;31.50;;;;;12.92;45.80;102228.97;5038653;28;45149;-71
2022/03/27 06:39:57;;;;;;;;;32.50;31.00;;;;;13.02;46.50;102263.34;5051939;28;45856;-71
2022/03/27 06:42:25;;;;;;;;;35.00;30.75;;;;;13.01;46.39;102252.56;5052027;28;44979;-71
2022/03/27 06:44:51;;;;;;;;;35.50;30.50;;;;;12.87;45.77;102236.81;5043464;28;45151;-71
2022/03/27 06:47:18;;;;;;;;;37.00;30.50;;;;;12.95;46.45;102261.28;5047453;28;44976;-71
2022/03/27 06:49:43;;;;;;;;;38.75;32.00;;;;;12.81;46.58;102241.03;5051662;28;45205;-71
2022/03/27 06:52:09;;;;;;;;;38.75;33.00;;;;;12.91;46.74;102260.22;5050518;28;45096;-70
2022/03/27 06:54:35;;;;;;;;;32.25;27.25;;;;;12.89;46.37;102263.72;5034598;28;45143;-69
2022/03/27 06:57:01;;;;;;;;;8.25;4.25;;;;;12.81;46.42;102244.59;5049130;28;45219;-70
2022/03/27 06:59:26;;;;;;;;;40.75;32.75;;;;;12.87;46.24;102241.28;5029351;28;45260;-71
2022/03/27 07:04:49;;;;;;;;;43.25;32.00;;;;;12.99;46.21;102265.91;5028756;28;45529;-70
2022/03/27 07:07:14;;;;;;;;;40.50;33.50;;;;;13.01;45.99;102258.84;5037650;28;45058;-70
2022/03/27 07:09:39;;;;;;;;;44.25;33.25;;;;;12.98;46.38;102244.38;5032511;28;46023;-70
2022/03/27 07:12:06;;;;;;;;;41.75;33.25;;;;;12.86;46.20;102226.03;5032012;28;49145;-70
2022/03/27 07:14:31;;;;;;;;;40.50;33.50;;;;;13.04;46.34;102253.59;5035755;28;45200;-71
2022/03/27 07:16:56;;;;;;;;;40.25;33.00;;;;;12.95;47.08;102221.03;5042254;28;45051;-71
2022/03/27 07:19:21;;;;;;;;;36.25;31.25;;;;;13.15;46.34;102253.09;5025269;28;56490;-73
2022/03/27 07:21:47;;;;;;;;;41.75;31.50;;;;;13.11;46.07;102259.22;5032140;28;46949;-71
2022/03/27 07:24:12;;;;;;;;;37.75;32.25;;;;;13.20;46.44;102256.88;5041581;28;45081;-70
2022/03/27 07:26:37;;;;;;;;;38.75;31.00;;;;;12.77;46.07;102182.72;5046787;28;45069;-71
2022/03/27 07:29:04;;;;;;;;;33.50;30.00;;;;;13.20;45.38;102246.16;5036894;28;45480;-71
2022/03/27 07:31:30;;;;;;;;;37.00;33.25;;;;;13.22;46.61;102252.50;5034990;28;45121;-71
2022/03/27 07:33:56;;;;;;;;;45.25;33.50;;;;;13.21;46.57;102248.88;5042315;28;45088;-71
2022/03/27 07:36:21;;;;;;;;;47.25;32.75;;;;;13.38;45.48;102265.72;5036008;28;45290;-71
2022/03/27 07:38:46;;;;;;;;;39.50;29.50;;;;;13.31;46.02;102242.13;5043890;28;45153;-72
2022/03/27 07:41:12;;;;;;;;;39.75;32.50;;;;;13.33;45.75;102245.84;5051076;28;45219;-70
2022/03/27 07:43:37;;;;;;;;;39.25;30.75;;;;;13.51;44.92;102268.88;5050727;28;45070;-71
2022/03/27 07:46:02;;;;;;;;;35.75;31.75;;;;;13.61;45.57;102271.97;5047837;28;44988;-69
2022/03/27 07:48:28;;;;;;;;;39.25;32.75;;;;;13.60;44.67;102275.50;5041435;28;45598;-70
2022/03/27 07:50:56;;;;;;;;;37.75;31.25;;;;;13.63;45.01;102280.09;5035076;28;45169;-70
2022/03/27 07:53:22;;;;;;;;;40.50;32.00;;;;;13.67;45.02;102278.44;5031648;28;44897;-71
2022/03/27 07:55:48;;;;;;;;;34.50;30.25;;;;;13.71;45.40;102275.00;5033216;28;45168;-69
2022/03/27 07:58:14;;;;;;;;;40.50;32.75;;;;;13.76;44.71;102270.72;5037291;28;45116;-71
2022/03/27 08:00:39;;;;;;;;;42.75;32.75;;;;;13.82;44.44;102276.31;5043152;28;44920;-71
2022/03/27 08:03:05;;;;;;;;;42.00;32.75;;;;;13.37;44.31;102190.50;5042318;28;44934;-69
2022/03/27 08:05:30;;;;;;;;;45.75;33.25;;;;;13.69;44.23;102229.28;5045384;28;45156;-71
2022/03/27 08:07:56;;;;;;;;;31.25;30.75;;;;;14.04;44.05;102275.38;5042717;28;45720;-69
2022/03/27 08:10:21;;;;;;;;;39.75;32.25;;;;;13.86;43.97;102232.63;5049091;28;45792;-71
2022/03/27 08:12:47;;;;;;;;;40.75;33.25;;;;;14.22;44.30;102274.19;5038787;28;45469;-72
2022/03/27 08:15:12;;;;;;;;;37.50;32.00;;;;;14.22;43.97;102253.59;5042484;28;45217;-71
2022/03/27 08:17:38;;;;;;;;;34.25;30.00;;;;;14.38;43.53;102280.16;5033926;28;45121;-70
2022/03/27 08:20:04;;;;;;;;;31.25;27.25;;;;;14.36;43.58;102281.88;5050493;28;45014;-69
2022/03/27 08:22:29;;;;;;;;;35.75;31.75;;;;;14.47;43.56;102284.03;5042169;28;45192;-71
2022/03/27 08:24:55;;;;;;;;;42.75;30.25;;;;;14.52;43.62;102267.22;5037718;28;45172;-70
2022/03/27 08:27:21;;;;;;;;;34.50;30.25;;;;;14.62;43.39;102276.53;5038377;28;46315;-71
2022/03/27 08:29:47;;;;;;;;;31.00;27.50;;;;;14.70;42.93;102257.97;5034742;28;45068;-71
2022/03/27 08:32:14;;;;;;;;;37.00;31.00;;;;;14.59;42.42;102240.53;5039597;28;45083;-70
2022/03/27 08:34:44;;;;;;;;;31.75;25.00;;;;;14.79;42.42;102252.91;5041584;28;45259;-70
2022/03/27 08:37:13;;;;;;;;;29.75;26.00;;;;;15.02;41.92;102277.88;5044745;28;45997;-69
2022/03/27 08:39:39;;;;;;;;;32.00;27.50;;;;;15.01;41.76;102261.66;5030031;28;45270;-70
2022/03/27 08:42:05;;;;;;;;;30.00;28.25;;;;;15.21;41.13;102276.69;5044319;28;45046;-71
2022/03/27 08:44:34;;;;;;;;;33.25;29.00;;;;;15.28;40.60;102273.31;5035111;28;45035;-70
2022/03/27 08:47:03;;;;;;;;;33.50;27.00;;;;;15.32;40.44;102276.13;5039743;28;46569;-70
2022/03/27 08:49:39;;;;;;;;;33.50;27.00;;;;;15.39;40.32;102273.69;5035281;28;45078;-70
2022/03/27 08:52:32;;;;;;;;;35.25;27.25;;;;;15.42;40.21;102270.16;5031014;28;45240;-71
2022/03/27 08:55:12;;;;;;;;;30.75;29.50;;;;;15.51;40.29;102272.19;5031412;28;45192;-71
2022/03/27 08:57:37;;;;;;;;;43.50;32.25;;;;;15.59;40.09;102268.91;5040186;28;45774;-71
2022/03/27 09:00:04;;;;;;;;;38.50;33.25;;;;;15.67;39.74;102274.50;5034544;28;45034;-71
2022/03/27 09:02:29;;;;;;;;;40.00;31.50;;;;;15.79;39.70;102274.00;5038464;28;45003;-72
2022/03/27 09:04:56;;;;;;;;;43.50;30.50;;;;;15.89;39.59;102276.09;5031825;28;44892;-71
2022/03/27 09:07:27;;;;;;;;;42.25;32.25;;;;;15.84;39.38;102248.09;5034446;28;45813;-71
2022/03/27 09:09:53;;;;;;;;;34.50;28.00;;;;;16.11;38.91;102283.00;5033620;28;44895;-71
2022/03/27 09:12:20;;;;;;;;;34.50;29.75;;;;;16.20;38.69;102285.97;5034400;28;44860;-71
2022/03/27 09:14:46;;;;;;;;;30.25;27.50;;;;;16.45;38.09;102289.34;5037769;28;45168;-70
2022/03/27 09:17:13;;;;;;;;;29.25;25.00;;;;;16.53;38.05;102254.44;5043966;28;45999;-70
2022/03/27 09:19:43;;;;;;;;;35.50;28.00;;;;;16.74;37.00;102254.97;5041311;28;45215;-69
2022/03/27 09:22:18;;;;;;;;;32.75;24.00;;;;;17.10;36.82;102285.59;5046417;28;45295;-70
2022/03/27 09:25:04;;;;;;;;;35.50;29.00;;;;;17.61;35.83;102276.88;5046366;28;45394;-71
2022/03/27 09:27:36;;;;;;;;;32.50;29.50;;;;;18.08;35.26;102273.34;5037309;28;45301;-70
2022/03/27 09:30:06;;;;;;;;;30.00;26.75;;;;;18.19;34.49;102252.84;5041829;28;45204;-71
2022/03/27 09:32:38;;;;;;;;;26.50;23.00;;;;;18.29;34.00;102256.63;5032242;28;45002;-71
2022/03/27 09:35:16;;;;;;;;;27.25;22.50;;;;;18.40;34.48;102281.19;5026132;28;45266;-70
2022/03/27 09:37:46;;;;;;;;;31.00;21.25;;;;;18.33;34.16;102269.34;5028060;28;47553;-70
2022/03/27 09:40:14;;;;;;;;;30.25;22.75;;;;;18.21;34.12;102245.69;5030842;28;45264;-70
2022/03/27 09:42:40;;;;;;;;;26.25;21.25;;;;;18.30;34.63;102269.28;5031080;28;45327;-71
2022/03/27 09:45:14;;;;;;;;;34.75;28.25;;;;;18.28;34.29;102273.75;5036348;28;45280;-70
2022/03/27 09:47:42;;;;;;;;;30.00;24.25;;;;;18.31;34.19;102270.19;5051554;28;45940;-69
2022/03/27 09:50:08;;;;;;;;;24.25;24.25;;;;;17.95;33.83;102207.31;5051670;28;45018;-70
2022/03/27 09:52:34;;;;;;;;;37.00;27.75;;;;;18.15;34.13;102241.91;5052223;28;45108;-70
2022/03/27 09:55:07;;;;;;;;;41.25;32.00;;;;;18.31;34.26;102262.06;5049834;28;45319;-70
2022/03/27 09:57:42;;;;;;;;;38.75;33.75;;;;;18.26;34.45;102245.75;5031321;28;47500;-71
2022/03/27 10:00:13;;;;;;;;;33.75;28.25;;;;;18.46;34.32;102270.47;5030958;28;44912;-71
2022/03/27 10:02:40;;;;;;;;;37.25;28.50;;;;;18.34;33.79;102240.50;5043554;28;44966;-71
2022/03/27 10:05:08;;;;;;;;;26.25;24.25;;;;;18.49;34.17;102258.78;5031925;28;44954;-71
2022/03/27 10:07:41;;;;;;;;;31.25;23.75;;;;;18.54;34.25;102260.69;5043408;28;46666;-71
2022/03/27 10:10:10;;;;;;;;;25.50;22.25;;;;;18.42;33.93;102241.53;5049383;28;45335;-70
2022/03/27 10:12:37;;;;;;;;;25.25;25.25;;;;;18.56;34.13;102258.94;5050467;28;45066;-71
2022/03/27 10:15:07;;;;;;;;;23.75;20.25;;;;;18.62;34.11;102258.13;5050601;28;45080;-70
2022/03/27 10:17:34;;;;;;;;;26.50;26.00;;;;;18.61;34.28;102240.06;5048710;28;46330;-71
2022/03/27 10:20:14;;;;;;;;;26.75;22.25;;;;;18.77;34.07;102254.75;5037695;28;45215;-71
2022/03/27 10:22:53;;;;;;;;;31.00;26.50;;;;;18.78;33.70;102254.78;5031824;28;45025;-71
2022/03/27 10:25:18;;;;;;;;;21.75;21.75;;;;;18.77;33.46;102252.94;5031620;28;45297;-70
2022/03/27 10:27:46;;;;;;;;;31.00;25.50;;;;;18.86;33.69;102248.59;5030643;28;45969;-72
2022/03/27 10:30:14;;;;;;;;;27.25;26.75;;;;;18.54;33.57;102171.38;5030048;28;45027;-69
2022/03/27 10:32:41;;;;;;;;;30.75;27.00;;;;;18.93;33.17;102224.38;5029981;28;45144;-71
2022/03/27 10:35:29;;;;;;;;;28.50;25.00;;;;;19.03;32.92;102236.25;5030145;28;45121;-69
2022/03/27 10:38:14;;;;;;;;;31.25;28.50;;;;;19.05;33.11;102229.06;5037106;28;45189;-72
2022/03/27 10:41:09;;;;;;;;;27.50;23.00;;;;;19.17;33.00;102227.41;5032440;28;45125;-71
2022/03/27 10:43:54;;;;;;;;;31.00;23.25;;;;;19.24;32.90;102222.13;5050393;28;45086;-71
2022/03/27 10:46:25;;;;;;;;;30.00;28.50;;;;;19.27;32.30;102214.03;5031807;28;45238;-71
2022/03/27 10:48:53;;;;;;;;;29.25;23.75;;;;;19.33;32.14;102219.53;5050886;28;46189;-69
2022/03/27 10:51:24;;;;;;;;;31.25;20.75;;;;;19.38;32.14;102219.59;5048813;28;44986;-70
2022/03/27 10:54:06;;;;;;;;;27.25;24.50;;;;;19.30;31.97;102213.16;5049301;28;45061;-71
2022/03/27 10:56:45;;;;;;;;;24.75;23.25;;;;;19.32;32.44;102219.53;5048912;28;45109;-71
2022/03/27 10:59:41;;;;;;;;;31.75;25.25;;;;;19.40;32.20;102209.72;5031476;28;45734;-71
2022/03/27 11:02:08;;;;;;;;;28.50;27.50;;;;;19.48;31.85;102205.25;5046220;28;44986;-70
2022/03/27 11:04:44;;;;;;;;;23.00;21.00;;;;;19.20;31.54;102127.22;5051088;28;45108;-70
2022/03/27 11:07:15;;;;;;;;;30.00;22.25;;;;;19.69;31.39;102199.19;5051422;28;44894;-70
2022/03/27 11:09:44;;;;;;;;;28.25;24.75;;;;;19.73;31.18;102196.53;5051036;28;45267;-70
2022/03/27 11:12:29;;;;;;;;;25.00;22.75;;;;;19.81;31.48;102192.13;5033290;28;45077;-71
2022/03/27 11:15:05;;;;;;;;;27.00;23.25;;;;;19.91;31.05;102190.44;5050125;28;45100;-70